createdAt,value
2017-01-30T00:00:34.952Z,0
2017-01-30T00:01:35.056Z,0
2017-01-30T00:02:34.968Z,0
2017-01-30T00:03:35.026Z,0
2017-01-30T00:04:34.972Z,0
2017-01-30T00:05:34.986Z,0
2017-01-30T00:06:35.036Z,0
2017-01-30T00:07:34.725Z,0
2017-01-30T00:08:35.005Z,0
2017-01-30T00:09:34.663Z,0
2017-01-30T00:10:35.011Z,0
2017-01-30T00:11:34.227Z,0
2017-01-30T00:12:35.129Z,0
2017-01-30T00:13:35.044Z,0
2017-01-30T00:14:34.694Z,0
2017-01-30T00:15:35.041Z,0
2017-01-30T00:16:35.097Z,0
2017-01-30T00:17:34.673Z,0
2017-01-30T00:18:34.665Z,0
2017-01-30T00:19:35.067Z,0
2017-01-30T00:20:35.171Z,0
2017-01-30T00:21:35.130Z,0
2017-01-30T00:22:35.156Z,0
2017-01-30T00:23:35.084Z,0
2017-01-30T00:24:35.095Z,0
2017-01-30T00:25:35.097Z,0
2017-01-30T00:26:34.707Z,0
2017-01-30T00:27:35.186Z,0
2017-01-30T00:28:35.222Z,0
2017-01-30T00:29:35.273Z,0
2017-01-30T00:30:35.189Z,0
2017-01-30T00:31:35.137Z,0
2017-01-30T00:32:34.804Z,0
2017-01-30T00:33:34.809Z,0
2017-01-30T00:34:35.150Z,0
2017-01-30T00:35:35.209Z,0
2017-01-30T00:36:35.260Z,0
2017-01-30T00:37:35.245Z,0
2017-01-30T00:38:35.274Z,0
2017-01-30T00:39:34.858Z,0
2017-01-30T00:40:35.242Z,0
2017-01-30T00:41:34.900Z,0
2017-01-30T00:42:35.250Z,0
2017-01-30T00:43:34.808Z,0
2017-01-30T00:44:35.261Z,0
2017-01-30T00:45:35.246Z,0
2017-01-30T00:46:35.223Z,0
2017-01-30T00:47:35.281Z,0
2017-01-30T00:48:35.288Z,0
2017-01-30T00:49:35.240Z,0
2017-01-30T00:50:35.318Z,0
2017-01-30T00:51:35.258Z,0
2017-01-30T00:52:35.306Z,0
2017-01-30T00:53:34.917Z,0
2017-01-30T00:54:35.270Z,0
2017-01-30T00:55:35.376Z,0
2017-01-30T00:56:34.884Z,0
2017-01-30T00:57:35.284Z,0
2017-01-30T00:58:35.341Z,0
2017-01-30T00:59:35.302Z,0
2017-01-30T01:00:34.914Z,0
2017-01-30T01:01:35.311Z,0
2017-01-30T01:02:35.312Z,0
2017-01-30T01:03:35.377Z,0
2017-01-30T01:04:35.401Z,0
2017-01-30T01:05:35.384Z,0
2017-01-30T01:06:35.388Z,0
2017-01-30T01:07:35.395Z,0
2017-01-30T01:08:35.356Z,0
2017-01-30T01:09:35.454Z,0
2017-01-30T01:10:35.361Z,0
2017-01-30T01:11:35.420Z,0
2017-01-30T01:12:35.479Z,0
2017-01-30T01:13:35.035Z,0
2017-01-30T01:14:35.384Z,0
2017-01-30T01:15:35.419Z,0
2017-01-30T01:16:35.055Z,0
2017-01-30T01:17:35.432Z,0
2017-01-30T01:18:35.560Z,0
2017-01-30T01:19:35.067Z,0
2017-01-30T01:20:35.023Z,0
2017-01-30T01:21:35.488Z,0
2017-01-30T01:22:35.431Z,0
2017-01-30T01:23:35.484Z,0
2017-01-30T01:24:35.109Z,0
2017-01-30T01:25:35.179Z,0
2017-01-30T01:26:35.118Z,0
2017-01-30T01:27:35.116Z,0
2017-01-30T01:28:35.173Z,0
2017-01-30T01:29:35.184Z,0
2017-01-30T01:30:35.526Z,0
2017-01-30T01:31:35.481Z,0
2017-01-30T01:32:35.536Z,0
2017-01-30T01:33:35.494Z,0
2017-01-30T01:34:35.626Z,0
2017-01-30T01:35:35.107Z,0
2017-01-30T01:36:35.571Z,0
2017-01-30T01:37:35.575Z,0
2017-01-30T01:38:35.581Z,0
2017-01-30T01:39:35.599Z,0
2017-01-30T01:40:35.588Z,0
2017-01-30T01:41:35.254Z,0
2017-01-30T01:42:35.208Z,0
2017-01-30T01:43:35.554Z,0
2017-01-30T01:44:35.612Z,0
2017-01-30T01:45:35.718Z,0
2017-01-30T01:46:34.783Z,0
2017-01-30T01:47:35.575Z,0
2017-01-30T01:48:35.637Z,0
2017-01-30T01:49:35.592Z,0
2017-01-30T01:50:35.649Z,0
2017-01-30T01:51:35.657Z,0
2017-01-30T01:52:35.611Z,0
2017-01-30T01:53:35.276Z,0
2017-01-30T01:54:35.615Z,0
2017-01-30T01:55:35.673Z,0
2017-01-30T01:56:35.630Z,0
2017-01-30T01:57:35.241Z,0
2017-01-30T01:58:35.642Z,0
2017-01-30T01:59:35.301Z,0
2017-01-30T02:00:35.757Z,0
2017-01-30T02:01:35.368Z,0
2017-01-30T02:02:36.019Z,0
2017-01-30T02:03:35.724Z,0
2017-01-30T02:04:35.679Z,0
2017-01-30T02:05:35.292Z,0
2017-01-30T02:06:35.741Z,0
2017-01-30T02:07:35.751Z,0
2017-01-30T02:08:35.800Z,0
2017-01-30T02:09:35.769Z,0
2017-01-30T02:10:35.717Z,0
2017-01-30T02:11:35.324Z,0
2017-01-30T02:12:35.728Z,0
2017-01-30T02:13:35.384Z,0
2017-01-30T02:14:35.639Z,0
2017-01-30T02:15:35.739Z,0
2017-01-30T02:16:35.816Z,0
2017-01-30T02:17:35.757Z,0
2017-01-30T02:18:35.767Z,0
2017-01-30T02:19:35.762Z,0
2017-01-30T02:20:35.822Z,0
2017-01-30T02:21:35.849Z,0
2017-01-30T02:22:35.783Z,0
2017-01-30T02:23:35.841Z,0
2017-01-30T02:24:35.452Z,0
2017-01-30T02:25:35.907Z,0
2017-01-30T02:26:35.455Z,0
2017-01-30T02:27:35.863Z,0
2017-01-30T02:28:35.820Z,0
2017-01-30T02:29:35.874Z,0
2017-01-30T02:30:35.886Z,0
2017-01-30T02:31:36.187Z,0
2017-01-30T02:32:35.894Z,0
2017-01-30T02:33:35.897Z,0
2017-01-30T02:34:35.907Z,0
2017-01-30T02:35:35.518Z,0
2017-01-30T02:36:35.126Z,0
2017-01-30T02:37:35.871Z,0
2017-01-30T02:38:35.087Z,0
2017-01-30T02:39:35.491Z,0
2017-01-30T02:40:35.936Z,0
2017-01-30T02:41:35.596Z,0
2017-01-30T02:42:36.001Z,0
2017-01-30T02:43:35.594Z,0
2017-01-30T02:44:35.962Z,0
2017-01-30T02:45:35.972Z,0
2017-01-30T02:46:35.233Z,0
2017-01-30T02:47:35.928Z,0
2017-01-30T02:48:36.041Z,0
2017-01-30T02:49:35.943Z,0
2017-01-30T02:50:35.556Z,0
2017-01-30T02:51:36.052Z,0
2017-01-30T02:52:36.056Z,0
2017-01-30T02:53:35.966Z,0
2017-01-30T02:54:36.022Z,0
2017-01-30T02:55:36.026Z,0
2017-01-30T02:56:35.982Z,0
2017-01-30T02:57:35.652Z,0
2017-01-30T02:58:35.995Z,0
2017-01-30T02:59:35.996Z,0
2017-01-30T03:00:35.614Z,0
2017-01-30T03:01:35.667Z,0
2017-01-30T03:02:36.074Z,0
2017-01-30T03:03:36.087Z,0
2017-01-30T03:04:36.031Z,0
2017-01-30T03:05:35.641Z,0
2017-01-30T03:06:36.144Z,0
2017-01-30T03:07:35.654Z,0
2017-01-30T03:08:35.656Z,0
2017-01-30T03:09:36.107Z,0
2017-01-30T03:10:36.115Z,0
2017-01-30T03:11:35.328Z,0
2017-01-30T03:12:36.125Z,0
2017-01-30T03:13:36.084Z,0
2017-01-30T03:14:35.844Z,0
2017-01-30T03:15:36.243Z,0
2017-01-30T03:16:36.151Z,0
2017-01-30T03:17:36.154Z,0
2017-01-30T03:18:36.108Z,0
2017-01-30T03:19:35.827Z,0
2017-01-30T03:20:36.221Z,0
2017-01-30T03:21:36.182Z,0
2017-01-30T03:22:36.136Z,0
2017-01-30T03:23:35.844Z,0
2017-01-30T03:24:36.157Z,0
2017-01-30T03:25:36.190Z,0
2017-01-30T03:26:36.257Z,0
2017-01-30T03:27:35.873Z,0
2017-01-30T03:28:36.273Z,0
2017-01-30T03:29:36.226Z,0
2017-01-30T03:30:36.230Z,0
2017-01-30T03:31:35.422Z,0
2017-01-30T03:32:36.254Z,0
2017-01-30T03:33:36.298Z,0
2017-01-30T03:34:36.355Z,0
2017-01-30T03:35:35.472Z,0
2017-01-30T03:36:35.876Z,0
2017-01-30T03:37:36.223Z,0
2017-01-30T03:38:36.132Z,0
2017-01-30T03:39:35.891Z,0
2017-01-30T03:40:36.293Z,0
2017-01-30T03:41:36.032Z,0
2017-01-30T03:42:35.852Z,0
2017-01-30T03:43:36.368Z,0
2017-01-30T03:44:36.313Z,0
2017-01-30T03:45:36.313Z,0
2017-01-30T03:46:35.986Z,0
2017-01-30T03:47:35.989Z,0
2017-01-30T03:48:36.348Z,0
2017-01-30T03:49:36.390Z,0
2017-01-30T03:50:36.297Z,0
2017-01-30T03:51:36.308Z,0
2017-01-30T03:52:35.965Z,0
2017-01-30T03:53:36.513Z,0
2017-01-30T03:54:36.371Z,0
2017-01-30T03:55:36.326Z,0
2017-01-30T03:56:35.992Z,0
2017-01-30T03:57:35.996Z,0
2017-01-30T03:58:36.348Z,0
2017-01-30T03:59:36.001Z,0
2017-01-30T04:00:36.010Z,0
2017-01-30T04:01:35.961Z,0
2017-01-30T04:02:36.663Z,0
2017-01-30T04:03:36.076Z,0
2017-01-30T04:04:36.494Z,0
2017-01-30T04:05:35.987Z,0
2017-01-30T04:06:35.994Z,0
2017-01-30T04:07:36.397Z,0
2017-01-30T04:08:36.551Z,0
2017-01-30T04:09:36.507Z,0
2017-01-30T04:10:36.431Z,0
2017-01-30T04:11:36.075Z,0
2017-01-30T04:12:36.523Z,0
2017-01-30T04:13:36.531Z,0
2017-01-30T04:14:36.040Z,0
2017-01-30T04:15:36.543Z,0
2017-01-30T04:16:36.494Z,0
2017-01-30T04:17:36.453Z,0
2017-01-30T04:18:36.065Z,0
2017-01-30T04:19:36.662Z,0
2017-01-30T04:20:36.567Z,0
2017-01-30T04:21:36.479Z,0
2017-01-30T04:22:36.534Z,0
2017-01-30T04:23:36.593Z,0
2017-01-30T04:24:36.846Z,0
2017-01-30T04:25:36.233Z,0
2017-01-30T04:26:36.510Z,0
2017-01-30T04:27:36.542Z,0
2017-01-30T04:28:36.519Z,0
2017-01-30T04:29:36.548Z,0
2017-01-30T04:30:36.631Z,0
2017-01-30T04:31:36.135Z,0
2017-01-30T04:32:36.644Z,0
2017-01-30T04:33:36.646Z,0
2017-01-30T04:34:36.560Z,0
2017-01-30T04:35:36.707Z,0
2017-01-30T04:36:36.865Z,0
2017-01-30T04:37:36.874Z,0
2017-01-30T04:38:36.705Z,0
2017-01-30T04:39:36.287Z,0
2017-01-30T04:40:36.725Z,0
2017-01-30T04:41:36.642Z,0
2017-01-30T04:42:36.598Z,0
2017-01-30T04:43:36.295Z,0
2017-01-30T04:44:36.716Z,0
2017-01-30T04:45:36.225Z,0
2017-01-30T04:46:36.277Z,0
2017-01-30T04:47:36.730Z,0
2017-01-30T04:48:35.896Z,0
2017-01-30T04:49:36.241Z,0
2017-01-30T04:50:36.695Z,0
2017-01-30T04:51:36.651Z,0
2017-01-30T04:52:36.654Z,0
2017-01-30T04:53:36.717Z,0
2017-01-30T04:54:36.422Z,0
2017-01-30T04:55:36.723Z,0
2017-01-30T04:56:36.679Z,0
2017-01-30T04:57:36.684Z,0
2017-01-30T04:58:36.342Z,0
2017-01-30T04:59:36.748Z,0
2017-01-30T05:00:36.853Z,0
2017-01-30T05:01:36.418Z,0
2017-01-30T05:02:36.767Z,0
2017-01-30T05:03:36.770Z,0
2017-01-30T05:04:36.776Z,0
2017-01-30T05:05:36.785Z,0
2017-01-30T05:06:36.746Z,0
2017-01-30T05:07:36.945Z,0
2017-01-30T05:08:36.750Z,0
2017-01-30T05:09:36.854Z,0
2017-01-30T05:10:36.373Z,0
2017-01-30T05:11:36.765Z,0
2017-01-30T05:12:36.822Z,0
2017-01-30T05:13:36.888Z,0
2017-01-30T05:14:36.814Z,0
2017-01-30T05:15:36.871Z,0
2017-01-30T05:16:36.852Z,0
2017-01-30T05:17:36.805Z,0
2017-01-30T05:18:36.855Z,0
2017-01-30T05:19:36.523Z,0
2017-01-30T05:20:36.818Z,0
2017-01-30T05:21:36.924Z,0
2017-01-30T05:22:36.882Z,0
2017-01-30T05:23:36.940Z,0
2017-01-30T05:24:36.894Z,0
2017-01-30T05:25:36.461Z,0
2017-01-30T05:26:36.905Z,0
2017-01-30T05:27:36.171Z,0
2017-01-30T05:28:36.922Z,0
2017-01-30T05:29:36.871Z,0
2017-01-30T05:30:36.927Z,0
2017-01-30T05:31:36.988Z,0
2017-01-30T05:32:36.889Z,0
2017-01-30T05:33:36.946Z,0
2017-01-30T05:34:36.954Z,0
2017-01-30T05:35:37.017Z,0
2017-01-30T05:36:37.144Z,0
2017-01-30T05:37:36.569Z,0
2017-01-30T05:38:36.927Z,0
2017-01-30T05:39:36.979Z,0
2017-01-30T05:40:36.586Z,0
2017-01-30T05:41:36.995Z,0
2017-01-30T05:42:37.045Z,0
2017-01-30T05:43:37.002Z,0
2017-01-30T05:44:36.622Z,0
2017-01-30T05:45:36.568Z,0
2017-01-30T05:46:37.018Z,0
2017-01-30T05:47:36.190Z,0
2017-01-30T05:48:36.979Z,0
2017-01-30T05:49:37.015Z,0
2017-01-30T05:50:37.060Z,0
2017-01-30T05:51:37.091Z,0
2017-01-30T05:52:36.667Z,0
2017-01-30T05:53:36.715Z,0
2017-01-30T05:54:36.717Z,0
2017-01-30T05:55:36.721Z,0
2017-01-30T05:56:37.110Z,0
2017-01-30T05:57:37.068Z,0
2017-01-30T05:58:37.091Z,0
2017-01-30T05:59:37.142Z,0
2017-01-30T06:00:37.398Z,0
2017-01-30T06:01:37.158Z,0
2017-01-30T06:02:35.926Z,0
2017-01-30T06:03:36.725Z,0
2017-01-30T06:04:37.126Z,0
2017-01-30T06:05:37.078Z,0
2017-01-30T06:06:36.742Z,0
2017-01-30T06:07:36.743Z,0
2017-01-30T06:08:37.193Z,0
2017-01-30T06:09:36.754Z,0
2017-01-30T06:10:37.159Z,0
2017-01-30T06:11:37.210Z,0
2017-01-30T06:12:36.770Z,0
2017-01-30T06:13:37.172Z,0
2017-01-30T06:14:37.175Z,0
2017-01-30T06:15:37.240Z,0
2017-01-30T06:16:37.198Z,0
2017-01-30T06:17:37.258Z,0
2017-01-30T06:18:37.157Z,0
2017-01-30T06:19:37.207Z,0
2017-01-30T06:20:36.823Z,0
2017-01-30T06:21:37.282Z,0
2017-01-30T06:22:37.273Z,0
2017-01-30T06:23:37.249Z,0
2017-01-30T06:24:37.187Z,0
2017-01-30T06:25:36.850Z,0
2017-01-30T06:26:37.251Z,0
2017-01-30T06:27:37.253Z,0
2017-01-30T06:28:37.261Z,0
2017-01-30T06:29:37.222Z,0
2017-01-30T06:30:36.832Z,0
2017-01-30T06:31:37.280Z,0
2017-01-30T06:32:37.020Z,0
2017-01-30T06:33:36.851Z,0
2017-01-30T06:34:37.300Z,0
2017-01-30T06:35:37.806Z,0
2017-01-30T06:36:37.316Z,0
2017-01-30T06:37:37.362Z,0
2017-01-30T06:38:37.273Z,0
2017-01-30T06:39:36.979Z,0
2017-01-30T06:40:37.367Z,0
2017-01-30T06:41:37.341Z,0
2017-01-30T06:42:36.899Z,0
2017-01-30T06:43:37.301Z,0
2017-01-30T06:44:36.612Z,0
2017-01-30T06:45:36.917Z,0
2017-01-30T06:46:37.370Z,0
2017-01-30T06:47:37.326Z,0
2017-01-30T06:48:37.327Z,0
2017-01-30T06:49:37.379Z,0
2017-01-30T06:50:37.374Z,0
2017-01-30T06:51:37.050Z,0
2017-01-30T06:52:37.345Z,0
2017-01-30T06:53:36.963Z,0
2017-01-30T06:54:37.023Z,0
2017-01-30T06:55:37.026Z,0
2017-01-30T06:56:37.374Z,0
2017-01-30T06:57:37.034Z,0
2017-01-30T06:58:37.487Z,0
2017-01-30T06:59:37.047Z,0
2017-01-30T07:00:37.396Z,0
2017-01-30T07:01:37.059Z,0
2017-01-30T07:02:37.413Z,4
2017-01-30T07:03:37.488Z,0
2017-01-30T07:04:37.079Z,4
2017-01-30T07:05:37.425Z,4
2017-01-30T07:06:37.433Z,4
2017-01-30T07:07:37.045Z,4
2017-01-30T07:08:37.498Z,4
2017-01-30T07:09:37.448Z,4
2017-01-30T07:10:37.456Z,4
2017-01-30T07:11:37.461Z,4
2017-01-30T07:12:37.476Z,4
2017-01-30T07:13:36.781Z,4
2017-01-30T07:14:37.182Z,4
2017-01-30T07:15:37.091Z,4
2017-01-30T07:16:37.523Z,4
2017-01-30T07:17:36.755Z,8
2017-01-30T07:18:37.552Z,4
2017-01-30T07:19:37.161Z,8
2017-01-30T07:20:37.613Z,8
2017-01-30T07:21:37.573Z,8
2017-01-30T07:22:37.528Z,8
2017-01-30T07:23:37.540Z,12
2017-01-30T07:24:37.641Z,8
2017-01-30T07:25:37.593Z,12
2017-01-30T07:26:37.600Z,8
2017-01-30T07:27:37.554Z,12
2017-01-30T07:28:37.570Z,16
2017-01-30T07:29:37.616Z,16
2017-01-30T07:30:37.624Z,16
2017-01-30T07:31:37.632Z,20
2017-01-30T07:32:37.591Z,24
2017-01-30T07:33:37.638Z,28
2017-01-30T07:34:37.644Z,32
2017-01-30T07:35:37.905Z,32
2017-01-30T07:36:37.658Z,32
2017-01-30T07:37:37.216Z,40
2017-01-30T07:38:37.667Z,40
2017-01-30T07:39:37.724Z,36
2017-01-30T07:40:37.338Z,44
2017-01-30T07:41:37.740Z,44
2017-01-30T07:42:37.247Z,48
2017-01-30T07:43:37.649Z,52
2017-01-30T07:44:36.861Z,52
2017-01-30T07:45:37.708Z,56
2017-01-30T07:46:37.715Z,56
2017-01-30T07:47:37.670Z,56
2017-01-30T07:48:37.681Z,60
2017-01-30T07:49:36.949Z,60
2017-01-30T07:50:36.919Z,72
2017-01-30T07:51:37.749Z,72
2017-01-30T07:52:37.316Z,68
2017-01-30T07:53:37.323Z,68
2017-01-30T07:54:37.764Z,76
2017-01-30T07:55:37.719Z,68
2017-01-30T07:56:37.737Z,64
2017-01-30T07:57:37.738Z,64
2017-01-30T07:58:37.346Z,64
2017-01-30T07:59:36.953Z,60
2017-01-30T08:00:37.752Z,56
2017-01-30T08:01:37.940Z,56
2017-01-30T08:02:37.767Z,60
2017-01-30T08:03:37.825Z,60
2017-01-30T08:04:37.829Z,60
2017-01-30T08:05:37.940Z,56
2017-01-30T08:06:37.796Z,56
2017-01-30T08:07:37.849Z,64
2017-01-30T08:08:37.406Z,68
2017-01-30T08:09:37.860Z,68
2017-01-30T08:10:37.421Z,76
2017-01-30T08:11:37.823Z,76
2017-01-30T08:12:37.437Z,72
2017-01-30T08:13:37.889Z,72
2017-01-30T08:14:37.905Z,72
2017-01-30T08:15:37.879Z,68
2017-01-30T08:16:37.901Z,64
2017-01-30T08:17:37.515Z,60
2017-01-30T08:18:37.074Z,56
2017-01-30T08:19:37.879Z,52
2017-01-30T08:20:37.537Z,56
2017-01-30T08:21:37.992Z,56
2017-01-30T08:22:37.948Z,52
2017-01-30T08:23:37.952Z,48
2017-01-30T08:24:38.361Z,44
2017-01-30T08:25:37.966Z,44
2017-01-30T08:26:37.972Z,44
2017-01-30T08:27:37.538Z,40
2017-01-30T08:28:37.986Z,40
2017-01-30T08:29:37.153Z,40
2017-01-30T08:30:37.602Z,40
2017-01-30T08:31:38.004Z,40
2017-01-30T08:32:37.989Z,96
2017-01-30T08:33:37.223Z,116
2017-01-30T08:34:37.983Z,132
2017-01-30T08:35:38.007Z,124
2017-01-30T08:36:37.693Z,120
2017-01-30T08:37:36.805Z,120
2017-01-30T08:38:37.607Z,116
2017-01-30T08:39:38.057Z,116
2017-01-30T08:40:37.670Z,120
2017-01-30T08:41:38.123Z,116
2017-01-30T08:42:38.087Z,120
2017-01-30T08:43:38.032Z,116
2017-01-30T08:44:38.043Z,120
2017-01-30T08:45:38.148Z,120
2017-01-30T08:46:38.049Z,128
2017-01-30T08:47:38.112Z,136
2017-01-30T08:48:38.071Z,156
2017-01-30T08:49:38.079Z,180
2017-01-30T08:50:38.181Z,196
2017-01-30T08:51:38.139Z,200
2017-01-30T08:52:38.140Z,200
2017-01-30T08:53:38.100Z,216
2017-01-30T08:54:38.191Z,220
2017-01-30T08:55:38.170Z,216
2017-01-30T08:56:38.173Z,236
2017-01-30T08:57:37.737Z,232
2017-01-30T08:58:38.145Z,236
2017-01-30T08:59:37.845Z,232
2017-01-30T09:00:37.805Z,236
2017-01-30T09:01:37.764Z,232
2017-01-30T09:02:38.161Z,244
2017-01-30T09:03:38.217Z,248
2017-01-30T09:04:38.229Z,252
2017-01-30T09:05:37.835Z,260
2017-01-30T09:06:37.825Z,248
2017-01-30T09:07:38.199Z,252
2017-01-30T09:08:38.250Z,256
2017-01-30T09:09:37.817Z,268
2017-01-30T09:10:38.271Z,256
2017-01-30T09:11:37.885Z,272
2017-01-30T09:12:38.239Z,284
2017-01-30T09:13:37.599Z,300
2017-01-30T09:14:37.850Z,312
2017-01-30T09:15:37.922Z,308
2017-01-30T09:16:37.866Z,304
2017-01-30T09:17:38.267Z,304
2017-01-30T09:18:38.376Z,288
2017-01-30T09:19:38.282Z,288
2017-01-30T09:20:38.386Z,288
2017-01-30T09:21:37.948Z,288
2017-01-30T09:22:38.352Z,296
2017-01-30T09:23:37.947Z,304
2017-01-30T09:24:38.415Z,308
2017-01-30T09:25:38.421Z,284
2017-01-30T09:26:38.427Z,300
2017-01-30T09:27:38.340Z,300
2017-01-30T09:28:38.342Z,296
2017-01-30T09:29:38.014Z,284
2017-01-30T09:30:38.072Z,288
2017-01-30T09:31:38.414Z,296
2017-01-30T09:32:38.375Z,304
2017-01-30T09:33:38.456Z,316
2017-01-30T09:34:38.039Z,316
2017-01-30T09:35:38.402Z,324
2017-01-30T09:36:38.398Z,316
2017-01-30T09:37:38.515Z,328
2017-01-30T09:38:38.462Z,316
2017-01-30T09:39:38.416Z,304
2017-01-30T09:40:38.422Z,280
2017-01-30T09:41:37.691Z,284
2017-01-30T09:42:38.441Z,276
2017-01-30T09:43:38.051Z,264
2017-01-30T09:44:38.455Z,260
2017-01-30T09:45:38.512Z,240
2017-01-30T09:46:38.568Z,256
2017-01-30T09:47:37.696Z,264
2017-01-30T09:48:38.580Z,272
2017-01-30T09:49:38.544Z,276
2017-01-30T09:50:38.497Z,280
2017-01-30T09:51:38.496Z,280
2017-01-30T09:52:38.160Z,304
2017-01-30T09:53:38.530Z,328
2017-01-30T09:54:38.171Z,344
2017-01-30T09:55:38.131Z,340
2017-01-30T09:56:38.535Z,328
2017-01-30T09:57:38.548Z,308
2017-01-30T09:58:38.205Z,312
2017-01-30T09:59:38.259Z,316
2017-01-30T10:00:38.173Z,336
2017-01-30T10:01:38.622Z,360
2017-01-30T10:02:38.681Z,364
2017-01-30T10:03:38.635Z,388
2017-01-30T10:04:38.592Z,448
2017-01-30T10:05:38.263Z,432
2017-01-30T10:06:38.276Z,440
2017-01-30T10:07:38.613Z,464
2017-01-30T10:08:38.277Z,484
2017-01-30T10:09:38.289Z,468
2017-01-30T10:10:38.639Z,484
2017-01-30T10:11:38.725Z,432
2017-01-30T10:12:38.753Z,404
2017-01-30T10:13:38.363Z,404
2017-01-30T10:14:37.874Z,432
2017-01-30T10:15:38.578Z,500
2017-01-30T10:16:38.384Z,500
2017-01-30T10:17:38.383Z,484
2017-01-30T10:18:38.749Z,464
2017-01-30T10:19:38.749Z,460
2017-01-30T10:20:38.361Z,440
2017-01-30T10:21:38.704Z,440
2017-01-30T10:22:38.371Z,432
2017-01-30T10:23:38.728Z,464
2017-01-30T10:24:38.732Z,452
2017-01-30T10:25:38.369Z,392
2017-01-30T10:26:38.746Z,492
2017-01-30T10:27:38.410Z,552
2017-01-30T10:28:38.755Z,548
2017-01-30T10:29:38.764Z,544
2017-01-30T10:30:38.826Z,556
2017-01-30T10:31:38.776Z,532
2017-01-30T10:32:38.792Z,528
2017-01-30T10:33:38.892Z,528
2017-01-30T10:34:39.097Z,524
2017-01-30T10:35:38.858Z,520
2017-01-30T10:36:38.812Z,560
2017-01-30T10:37:38.779Z,516
2017-01-30T10:38:38.822Z,532
2017-01-30T10:39:38.880Z,492
2017-01-30T10:40:38.440Z,452
2017-01-30T10:41:38.945Z,444
2017-01-30T10:42:38.454Z,412
2017-01-30T10:43:39.854Z,396
2017-01-30T10:44:38.862Z,380
2017-01-30T10:45:38.870Z,368
2017-01-30T10:46:38.931Z,396
2017-01-30T10:47:38.938Z,424
2017-01-30T10:48:38.592Z,432
2017-01-30T10:49:38.948Z,432
2017-01-30T10:50:38.558Z,408
2017-01-30T10:51:38.120Z,388
2017-01-30T10:52:38.918Z,356
2017-01-30T10:53:38.924Z,340
2017-01-30T10:54:38.979Z,364
2017-01-30T10:55:38.147Z,376
2017-01-30T10:56:39.044Z,444
2017-01-30T10:57:38.556Z,472
2017-01-30T10:58:38.963Z,516
2017-01-30T10:59:38.570Z,548
2017-01-30T11:00:39.027Z,580
2017-01-30T11:01:39.979Z,632
2017-01-30T11:02:39.035Z,644
2017-01-30T11:03:38.596Z,596
2017-01-30T11:04:38.656Z,552
2017-01-30T11:05:39.011Z,456
2017-01-30T11:06:39.009Z,380
2017-01-30T11:07:39.122Z,336
2017-01-30T11:08:39.075Z,328
2017-01-30T11:09:39.032Z,312
2017-01-30T11:10:38.647Z,344
2017-01-30T11:11:39.145Z,340
2017-01-30T11:12:38.311Z,364
2017-01-30T11:13:38.708Z,380
2017-01-30T11:14:38.769Z,400
2017-01-30T11:15:39.178Z,384
2017-01-30T11:16:39.075Z,376
2017-01-30T11:17:39.088Z,372
2017-01-30T11:18:38.744Z,368
2017-01-30T11:19:39.154Z,424
2017-01-30T11:20:39.157Z,428
2017-01-30T11:21:39.219Z,428
2017-01-30T11:22:39.226Z,440
2017-01-30T11:23:39.136Z,440
2017-01-30T11:24:39.136Z,420
2017-01-30T11:25:38.748Z,472
2017-01-30T11:26:38.829Z,488
2017-01-30T11:27:38.770Z,488
2017-01-30T11:28:38.371Z,560
2017-01-30T11:29:39.198Z,580
2017-01-30T11:30:39.281Z,564
2017-01-30T11:31:38.846Z,520
2017-01-30T11:32:39.199Z,488
2017-01-30T11:33:39.195Z,464
2017-01-30T11:34:39.292Z,444
2017-01-30T11:35:39.322Z,424
2017-01-30T11:36:38.925Z,400
2017-01-30T11:37:39.230Z,400
2017-01-30T11:38:39.134Z,404
2017-01-30T11:39:39.240Z,392
2017-01-30T11:40:39.289Z,408
2017-01-30T11:41:38.859Z,404
2017-01-30T11:42:38.918Z,404
2017-01-30T11:43:53.745Z,396
2017-01-30T11:44:39.277Z,376
2017-01-30T11:45:39.284Z,352
2017-01-30T11:46:39.283Z,296
2017-01-30T11:47:39.295Z,268
2017-01-30T11:48:39.348Z,256
2017-01-30T11:49:40.211Z,272
2017-01-30T11:50:39.393Z,304
2017-01-30T11:51:38.900Z,316
2017-01-30T11:52:39.427Z,356
2017-01-30T11:53:39.337Z,340
2017-01-30T11:54:39.342Z,340
2017-01-30T11:55:38.949Z,372
2017-01-30T11:56:39.451Z,356
2017-01-30T11:57:39.362Z,356
2017-01-30T11:58:39.526Z,376
2017-01-30T11:59:38.982Z,372
2017-01-30T12:00:39.086Z,368
2017-01-30T12:01:39.391Z,344
2017-01-30T12:02:39.394Z,308
2017-01-30T12:03:39.457Z,312
2017-01-30T12:04:39.465Z,280
2017-01-30T12:05:39.514Z,260
2017-01-30T12:06:39.474Z,248
2017-01-30T12:07:39.480Z,256
2017-01-30T12:08:39.517Z,264
2017-01-30T12:09:39.441Z,276
2017-01-30T12:10:39.449Z,268
2017-01-30T12:11:39.111Z,280
2017-01-30T12:12:39.467Z,296
2017-01-30T12:13:39.474Z,280
2017-01-30T12:14:39.131Z,268
2017-01-30T12:15:39.535Z,252
2017-01-30T12:16:39.095Z,268
2017-01-30T12:17:39.551Z,272
2017-01-30T12:18:39.553Z,296
2017-01-30T12:19:39.213Z,288
2017-01-30T12:20:39.515Z,280
2017-01-30T12:21:39.674Z,280
2017-01-30T12:22:39.580Z,304
2017-01-30T12:23:39.542Z,340
2017-01-30T12:24:39.543Z,332
2017-01-30T12:25:39.654Z,332
2017-01-30T12:26:39.608Z,332
2017-01-30T12:27:39.573Z,308
2017-01-30T12:28:39.574Z,308
2017-01-30T12:29:38.394Z,300
2017-01-30T12:30:39.590Z,292
2017-01-30T12:31:39.643Z,308
2017-01-30T12:32:39.202Z,328
2017-01-30T12:33:39.214Z,304
2017-01-30T12:34:39.663Z,312
2017-01-30T12:35:39.618Z,312
2017-01-30T12:36:39.670Z,292
2017-01-30T12:37:39.682Z,288
2017-01-30T12:38:39.687Z,312
2017-01-30T12:39:39.903Z,300
2017-01-30T12:40:39.708Z,304
2017-01-30T12:41:39.714Z,280
2017-01-30T12:42:39.671Z,260
2017-01-30T12:43:39.771Z,272
2017-01-30T12:44:39.727Z,268
2017-01-30T12:45:39.742Z,260
2017-01-30T12:46:39.409Z,280
2017-01-30T12:47:38.912Z,252
2017-01-30T12:48:39.361Z,260
2017-01-30T12:49:39.322Z,296
2017-01-30T12:50:39.829Z,292
2017-01-30T12:51:38.988Z,276
2017-01-30T12:52:39.396Z,284
2017-01-30T12:53:39.350Z,276
2017-01-30T12:54:39.850Z,252
2017-01-30T12:55:39.813Z,264
2017-01-30T12:56:39.815Z,296
2017-01-30T12:57:39.377Z,292
2017-01-30T12:58:39.780Z,316
2017-01-30T12:59:39.785Z,280
2017-01-30T13:00:39.809Z,272
2017-01-30T13:01:39.805Z,232
2017-01-30T13:02:39.912Z,196
2017-01-30T13:03:40.569Z,188
2017-01-30T13:04:39.824Z,196
2017-01-30T13:05:39.931Z,196
2017-01-30T13:06:39.948Z,188
2017-01-30T13:07:39.896Z,188
2017-01-30T13:08:39.905Z,200
2017-01-30T13:09:39.460Z,216
2017-01-30T13:10:39.867Z,204
2017-01-30T13:11:39.929Z,132
2017-01-30T13:12:39.877Z,128
2017-01-30T13:13:39.934Z,148
2017-01-30T13:14:39.892Z,156
2017-01-30T13:15:39.904Z,136
2017-01-30T13:16:39.899Z,128
2017-01-30T13:17:39.571Z,116
2017-01-30T13:18:39.977Z,124
2017-01-30T13:19:39.137Z,108
2017-01-30T13:20:39.587Z,124
2017-01-30T13:21:39.989Z,120
2017-01-30T13:22:39.550Z,120
2017-01-30T13:23:39.609Z,112
2017-01-30T13:24:39.968Z,104
2017-01-30T13:25:39.976Z,88
2017-01-30T13:26:40.078Z,88
2017-01-30T13:27:40.031Z,92
2017-01-30T13:28:39.590Z,92
2017-01-30T13:29:39.995Z,92
2017-01-30T13:30:40.008Z,104
2017-01-30T13:31:40.007Z,108
2017-01-30T13:32:40.060Z,92
2017-01-30T13:33:40.079Z,136
2017-01-30T13:34:40.129Z,148
2017-01-30T13:35:40.088Z,152
2017-01-30T13:36:40.043Z,184
2017-01-30T13:37:40.047Z,152
2017-01-30T13:38:40.056Z,136
2017-01-30T13:39:40.108Z,112
2017-01-30T13:40:40.370Z,100
2017-01-30T13:41:40.078Z,96
2017-01-30T13:42:39.687Z,96
2017-01-30T13:43:40.086Z,92
2017-01-30T13:44:40.098Z,128
2017-01-30T13:45:40.106Z,124
2017-01-30T13:46:39.712Z,120
2017-01-30T13:47:39.768Z,116
2017-01-30T13:48:40.176Z,128
2017-01-30T13:49:39.856Z,152
2017-01-30T13:50:40.162Z,124
2017-01-30T13:51:40.189Z,112
2017-01-30T13:52:39.753Z,140
2017-01-30T13:53:40.200Z,124
2017-01-30T13:54:40.157Z,120
2017-01-30T13:55:40.226Z,124
2017-01-30T13:56:40.329Z,144
2017-01-30T13:57:40.179Z,132
2017-01-30T13:58:40.189Z,140
2017-01-30T13:59:39.400Z,184
2017-01-30T14:00:40.202Z,188
2017-01-30T14:01:39.814Z,164
2017-01-30T14:02:40.263Z,156
2017-01-30T14:03:39.880Z,132
2017-01-30T14:04:40.285Z,140
2017-01-30T14:05:39.471Z,140
2017-01-30T14:06:40.000Z,172
2017-01-30T14:07:40.299Z,124
2017-01-30T14:08:40.299Z,100
2017-01-30T14:09:40.263Z,96
2017-01-30T14:10:39.968Z,116
2017-01-30T14:11:40.328Z,120
2017-01-30T14:12:39.886Z,132
2017-01-30T14:13:40.289Z,140
2017-01-30T14:14:40.300Z,104
2017-01-30T14:15:40.301Z,100
2017-01-30T14:16:40.018Z,140
2017-01-30T14:17:39.929Z,164
2017-01-30T14:18:40.322Z,116
2017-01-30T14:19:40.376Z,128